首页
METAR-TAF:

METAR-TAF

机场 :

Tamchy, 吉尔吉斯斯坦

纬度: 42-35-17N, 经度: 076-42-47E, 海拔: 1653米

当前天气观测

该预报发布于40分钟前的01:00 UTC
风速2节,风向多变
温度 16°C
湿度 55%
气压 1022 hPa
能见度10公里或以上

METAR: UCFL 310100Z VRB01MPS 9999 NSC 16/07 Q1022 R07/CLRD//

时间: 07:40 (01:40 UTC)

预报

该预报发布于2小时和54分钟前的22:46 UTC
预报有效从31日的 00点(UTC)到 31日的 09点(UTC)
风速6节,风向北转西北,有时为16节阵风
能见度10公里或以上
散云层高于3000英尺, 积雨云.
散云层高于10000英尺
短暂存在
从 31日的 00点(UTC)到 31日的 06点(UTC)
风速14节,风向西转西北,有时为23节阵风

TAF: UCFL 302246Z 3100/3109 34003G08MPS 9999 SCT030CB SCT100 TEMPO 3100/3106 30007G12MPS

超过4000个机场的气象观测和天气预报(METAR&TAF报告)。

可查询的气象台以黄色和红色小点在地图上表示。

将鼠标移到小点上方,可查看气象台名称。

然后点击查看天气观测和预报。

如需切换地图:点击带黑十字的绿色按钮放大地图;点击带横线的绿色按钮缩小地图;或者点击绿色箭头查看邻近地区的地图。


METAR-TAF: